East Gadsden, Alabama
Current Conditions -  °F | °C
As of 9:35 PM on Sunday 21 Dec 2014 (Local Time) from KGAD Reporting Station
Overcast Overcast  
Wind Chill: 50°   Ceiling: 1500
Heat Index: 50°   Visibility: 10mi
Dew Point: 45°   Wind: 3mph
Humidity: 82%   Direction: 60°ENE
Pressure: 30.09"   Gusts: NA
Location:  34.0158°N, 85.8342°W
Report Text: KGAD 220335Z 06003KT 10SM OVC015 10/07 A3009 RMK AO1
Loading
Personal Weather Stations






























Interactive Weather Map New forecast layout! Learn more

10-Day Weather Forecast

Advertisements
Track Severe Weather on mobile